aviador You're here:

LYBE Decoded Metar

BEOGRAD in SERBIA
Report Time2018-07-22 03:00:00
UTC Time2018-07-22 03:10:03
Flight Rules vfr VFR
Wind340° at 06 kt
W.Decomp.*RWY 30: 4.8 kt HW 3.6 kt RCW
W.Rank340° ranks 18
Current wind is below 340° avg. (6.7)
Visibility9999 m
Phenomena:N/A
Clouds:N/A
Expected CloudBase > 800 ft AGL from Temp-Dew spread
CeilingNone
Temp21°C (ISA +7)
Dew Point19°C (88% RH)
QNH1010 hPa
Density Alt1,493 ft
Elevation325 ft
Report Wrong Elevation
Raw Report
METAR LYBE 220300Z 34006KT CAVOK 21/19 Q1010 NOSIG=

Extra information for LYBE:More info

Metar Taf Metar & Taf Last 4 Metars F.Rules Stats Wind Profile Meteogram Temp Stats Airport Information Weather charts Add Link Nearby VenuesMetar ALERT Operation Metar Decoded Social comments